| time (UTC) | temp C | wind direction | speed KPH | gust KPH | rain 1hr cm | rain 24hr cm | rain mn cm | humidity % | barometer mb |
| 20260504081524 | 16 | 348 | 4.8 | 6.4 | 0.00 | 0.00 | 0.00 | 84 | 1016.6 |
| 20260504081007 | 16 | 346 | 0.0 | 8.0 | 0.00 | 0.00 | 0.00 | 84 | 1016.6 |
| 20260504080506 | 16 | 342 | 1.6 | 8.0 | 0.00 | 0.00 | 0.00 | 84 | 1016.8 |
| 20260504050507 | 18 | 38 | 3.2 | 8.0 | 0.00 | 0.00 | 0.00 | 76 | 1017.7 |
| 20260504050020 | 18 | 49 | 3.2 | 8.0 | 0.00 | 0.00 | 0.00 | 76 | 1017.8 |
| 20260504045504 | 18 | 42 | 3.2 | 8.0 | 0.00 | 0.00 | 0.00 | 76 | 1017.9 |
| 20260504045012 | 18 | 31 | 4.8 | 8.0 | 0.00 | 0.00 | 0.00 | 75 | 1017.9 |
| 20260504044534 | 18 | 53 | 3.2 | 9.7 | 0.00 | 0.00 | 0.00 | 75 | 1018.0 |
| 20260504044006 | 18 | 29 | 4.8 | 9.7 | 0.00 | 0.00 | 0.00 | 75 | 1018.0 |
| 20260504043504 | 18 | 39 | 3.2 | 9.7 | 0.00 | 0.00 | 0.00 | 75 | 1018.1 |
| 20260504043022 | 18 | 34 | 1.6 | 6.4 | 0.00 | 0.00 | 0.00 | 74 | 1018.2 |
| 20260504042510 | 18 | 45 | 3.2 | 6.4 | 0.00 | 0.00 | 0.00 | 74 | 1018.2 |
| 20260504042009 | 18 | 56 | 1.6 | 8.0 | 0.00 | 0.00 | 0.00 | 74 | 1018.1 |
| 20260504041522 | 18 | 50 | 3.2 | 8.0 | 0.00 | 0.00 | 0.00 | 73 | 1017.9 |
| 20260504041006 | 18 | 40 | 4.8 | 9.7 | 0.00 | 0.00 | 0.00 | 73 | 1018.0 |
| 20260504040503 | 18 | 18 | 3.2 | 9.7 | 0.00 | 0.00 | 0.00 | 73 | 1017.9 |
| 20260504040022 | 18 | 40 | 4.8 | 8.0 | 0.00 | 0.00 | 0.00 | 72 | 1018.1 |
| 20260504035511 | 18 | 38 | 3.2 | 8.0 | 0.00 | 0.00 | 0.00 | 72 | 1018.2 |
| 20260504035008 | 18 | 13 | 3.2 | 12.9 | 0.00 | 0.00 | 0.00 | 71 | 1018.2 |
| 20260504034512 | 18 | 33 | 3.2 | 12.9 | 0.00 | 0.00 | 0.00 | 71 | 1018.0 |
| 20260504034006 | 18 | 59 | 3.2 | 8.0 | 0.00 | 0.00 | 0.00 | 71 | 1017.9 |
| 20260504033510 | 18 | 52 | 3.2 | 9.7 | 0.00 | 0.00 | 0.00 | 71 | 1018.0 |
| 20260504033036 | 18 | 41 | 4.8 | 9.7 | 0.00 | 0.00 | 0.00 | 71 | 1018.0 |
| 20260504032504 | 18 | 28 | 3.2 | 9.7 | 0.00 | 0.00 | 0.00 | 71 | 1017.9 |
| 20260504032012 | 18 | 49 | 4.8 | 8.0 | 0.00 | 0.00 | 0.00 | 71 | 1017.9 |
| 20260504031524 | 18 | 91 | 4.8 | 11.3 | 0.00 | 0.00 | 0.00 | 71 | 1017.9 |
| 20260504031008 | 18 | 40 | 3.2 | 14.5 | 0.00 | 0.00 | 0.00 | 70 | 1017.9 |
| 20260504030506 | 18 | 52 | 1.6 | 14.5 | 0.00 | 0.00 | 0.00 | 70 | 1017.9 |
| 20260504030025 | 18 | 83 | 4.8 | 14.5 | 0.00 | 0.00 | 0.00 | 70 | 1017.9 |
| 20260504025507 | 18 | 89 | 3.2 | 12.9 | 0.00 | 0.00 | 0.00 | 70 | 1018.0 |
| 20260504025006 | 19 | 35 | 6.4 | 12.9 | 0.00 | 0.00 | 0.00 | 70 | 1017.9 |
| 20260504024522 | 19 | 61 | 4.8 | 14.5 | 0.00 | 0.00 | 0.00 | 70 | 1017.8 |
| 20260504024006 | 19 | 77 | 4.8 | 14.5 | 0.00 | 0.00 | 0.00 | 69 | 1017.8 |
| 20260504023508 | 19 | 72 | 3.2 | 12.9 | 0.00 | 0.00 | 0.00 | 69 | 1017.9 |
| 20260504023016 | 19 | 74 | 4.8 | 12.9 | 0.00 | 0.00 | 0.00 | 69 | 1017.9 |
| 20260504022511 | 19 | 52 | 3.2 | 12.9 | 0.00 | 0.00 | 0.00 | 69 | 1017.8 |
| 20260504022007 | 19 | 57 | 3.2 | 12.9 | 0.00 | 0.00 | 0.00 | 69 | 1017.9 |
| 20260504021513 | 19 | 93 | 4.8 | 14.5 | 0.00 | 0.00 | 0.00 | 69 | 1017.7 |
| 20260504021009 | 19 | 92 | 4.8 | 14.5 | 0.00 | 0.00 | 0.00 | 69 | 1017.8 |
| 20260504020508 | 19 | 68 | 6.4 | 14.5 | 0.00 | 0.00 | 0.00 | 68 | 1017.7 |
| 20260504020031 | 19 | 65 | 3.2 | 16.1 | 0.00 | 0.00 | 0.00 | 68 | 1017.7 |
| 20260504015505 | 19 | 98 | 3.2 | 16.1 | 0.00 | 0.00 | 0.00 | 68 | 1017.6 |
| 20260504015008 | 20 | 76 | 4.8 | 16.1 | 0.00 | 0.00 | 0.00 | 68 | 1017.6 |
| 20260504014524 | 20 | 74 | 6.4 | 16.1 | 0.00 | 0.00 | 0.00 | 68 | 1017.5 |
| 20260504014011 | 20 | 98 | 8.0 | 14.5 | 0.00 | 0.00 | 0.00 | 67 | 1017.5 |
| 20260504013508 | 20 | 78 | 6.4 | 14.5 | 0.00 | 0.00 | 0.00 | 67 | 1017.5 |
| 20260504013029 | 20 | 53 | 8.0 | 14.5 | 0.00 | 0.00 | 0.00 | 66 | 1017.3 |
| 20260504012507 | 20 | 88 | 4.8 | 17.7 | 0.00 | 0.00 | 0.00 | 66 | 1017.2 |
| 20260504012007 | 20 | 80 | 8.0 | 17.7 | 0.00 | 0.00 | 0.00 | 65 | 1017.1 |
| 20260504011518 | 20 | 60 | 6.4 | 19.3 | 0.00 | 0.00 | 0.00 | 64 | 1017.1 |
| 20260504011008 | 20 | 44 | 9.7 | 20.9 | 0.00 | 0.00 | 0.00 | 64 | 1017.1 |
| 20260504010508 | 20 | 61 | 6.4 | 20.9 | 0.00 | 0.00 | 0.00 | 63 | 1017.0 |
| 20260504010023 | 21 | 61 | 6.4 | 19.3 | 0.00 | 0.00 | 0.00 | 62 | 1016.8 |
| 20260504005509 | 21 | 99 | 11.3 | 19.3 | 0.00 | 0.00 | 0.00 | 62 | 1016.8 |
| 20260504005010 | 21 | 55 | 11.3 | 19.3 | 0.00 | 0.00 | 0.00 | 61 | 1016.7 |
| 20260504004516 | 21 | 57 | 6.4 | 16.1 | 0.00 | 0.00 | 0.00 | 60 | 1016.7 |
| 20260504004010 | 21 | 68 | 6.4 | 14.5 | 0.00 | 0.00 | 0.00 | 60 | 1016.6 |
| 20260504003509 | 21 | 69 | 4.8 | 14.5 | 0.00 | 0.00 | 0.00 | 59 | 1016.6 |
| 20260504003030 | 21 | 70 | 4.8 | 17.7 | 0.00 | 0.00 | 0.00 | 58 | 1016.5 |
| 20260504002506 | 21 | 74 | 9.7 | 17.7 | 0.00 | 0.00 | 0.00 | 57 | 1016.5 |
| 20260504002009 | 22 | 22 | 8.0 | 19.3 | 0.00 | 0.00 | 0.00 | 56 | 1016.6 |
| 20260504001524 | 22 | 17 | 11.3 | 19.3 | 0.00 | 0.00 | 0.00 | 56 | 1016.6 |
| 20260504001005 | 22 | 29 | 6.4 | 16.1 | 0.00 | 0.00 | 0.00 | 56 | 1016.7 |
| 20260504000506 | 22 | 44 | 3.2 | 19.3 | 0.00 | 0.00 | 0.00 | 56 | 1016.7 |
| 20260504000023 | 22 | 70 | 9.7 | 19.3 | 0.00 | 0.00 | 0.00 | 55 | 1016.6 |
| 20260503235510 | 22 | 42 | 8.0 | 19.3 | 0.00 | 0.00 | 0.00 | 56 | 1016.6 |
| 20260503235007 | 22 | 11 | 4.8 | 16.1 | 0.00 | 0.00 | 0.00 | 55 | 1016.6 |
| 20260503234526 | 22 | 48 | 8.0 | 14.5 | 0.00 | 0.00 | 0.00 | 55 | 1016.6 |
| 20260503234018 | 22 | 46 | 4.8 | 16.1 | 0.00 | 0.00 | 0.00 | 55 | 1016.4 |
| 20260503233510 | 22 | 37 | 3.2 | 17.7 | 0.00 | 0.00 | 0.00 | 55 | 1016.2 |
| 20260503233002 | 22 | 57 | 9.7 | 17.7 | 0.00 | 0.00 | 0.00 | 54 | 1016.2 |
| 20260503232503 | 22 | 73 | 6.4 | 22.5 | 0.00 | 0.00 | 0.00 | 54 | 1016.3 |
| 20260503232008 | 22 | 65 | 8.0 | 22.5 | 0.00 | 0.00 | 0.00 | 54 | 1016.3 |
| 20260503231502 | 22 | 26 | 4.8 | 17.7 | 0.00 | 0.00 | 0.00 | 55 | 1016.3 |
| 20260503231004 | 22 | 57 | 6.4 | 17.7 | 0.00 | 0.00 | 0.00 | 54 | 1016.2 |
| 20260503230503 | 23 | 79 | 8.0 | 17.7 | 0.00 | 0.00 | 0.00 | 54 | 1016.2 |
| 20260503230004 | 23 | 65 | 6.4 | 22.5 | 0.00 | 0.00 | 0.00 | 54 | 1016.2 |
| 20260503225503 | 23 | 78 | 9.7 | 24.1 | 0.00 | 0.00 | 0.00 | 54 | 1016.1 |
| 20260503225003 | 23 | 99 | 11.3 | 24.1 | 0.00 | 0.00 | 0.00 | 55 | 1016.2 |
| 20260503224503 | 23 | 78 | 11.3 | 20.9 | 0.00 | 0.00 | 0.00 | 54 | 1016.2 |
| 20260503224005 | 23 | 98 | 12.9 | 24.1 | 0.00 | 0.00 | 0.00 | 54 | 1016.1 |
| 20260503223501 | 23 | 92 | 9.7 | 24.1 | 0.00 | 0.00 | 0.00 | 53 | 1016.1 |
| 20260503223006 | 23 | 94 | 11.3 | 20.9 | 0.00 | 0.00 | 0.00 | 53 | 1016.1 |
| 20260503222508 | 23 | 80 | 9.7 | 20.9 | 0.00 | 0.00 | 0.00 | 54 | 1016.1 |
| 20260503222003 | 23 | 94 | 9.7 | 19.3 | 0.00 | 0.00 | 0.00 | 53 | 1016.2 |
| 20260503221503 | 23 | 90 | 6.4 | 17.7 | 0.00 | 0.00 | 0.00 | 53 | 1016.2 |
| 20260503221006 | 23 | 74 | 6.4 | 17.7 | 0.00 | 0.00 | 0.00 | 52 | 1016.2 |
| 20260503220503 | 24 | 79 | 4.8 | 17.7 | 0.00 | 0.00 | 0.00 | 52 | 1016.1 |
| 20260503220008 | 24 | 115 | 4.8 | 11.3 | 0.00 | 0.00 | 0.00 | 52 | 1016.1 |
| 20260503215502 | 24 | 42 | 3.2 | 11.3 | 0.00 | 0.00 | 0.00 | 53 | 1016.1 |
| 20260503215008 | 24 | 69 | 4.8 | 17.7 | 0.00 | 0.00 | 0.00 | 53 | 1016.1 |
| 20260503214502 | 24 | 96 | 8.0 | 17.7 | 0.00 | 0.00 | 0.00 | 52 | 1016.1 |
| 20260503214003 | 24 | 76 | 9.7 | 17.7 | 0.00 | 0.00 | 0.00 | 53 | 1016.1 |
| 20260503213502 | 24 | 44 | 8.0 | 19.3 | 0.00 | 0.00 | 0.00 | 52 | 1016.0 |
| 20260503213010 | 24 | 51 | 11.3 | 20.9 | 0.00 | 0.00 | 0.00 | 52 | 1016.0 |
| 20260503212504 | 24 | 86 | 8.0 | 20.9 | 0.00 | 0.00 | 0.00 | 52 | 1016.0 |
| 20260503212002 | 24 | 80 | 9.7 | 20.9 | 0.00 | 0.00 | 0.00 | 52 | 1015.9 |
| 20260503211514 | 23 | 92 | 1.6 | 22.5 | 0.00 | 0.00 | 0.00 | 53 | 1015.9 |
| 20260503211007 | 23 | 74 | 8.0 | 22.5 | 0.00 | 0.00 | 0.00 | 53 | 1015.9 |
| 20260503210506 | 24 | 86 | 8.0 | 19.3 | 0.00 | 0.00 | 0.00 | 52 | 1016.0 |
| 20260503210012 | 24 | 66 | 4.8 | 17.7 | 0.00 | 0.00 | 0.00 | 51 | 1016.0 |
| 20260503205503 | 25 | 153 | 8.0 | 17.7 | 0.00 | 0.00 | 0.00 | 51 | 1016.0 |
| 20260503205008 | 25 | 69 | 9.7 | 22.5 | 0.00 | 0.00 | 0.00 | 51 | 1016.2 |
| 20260503204506 | 25 | 81 | 11.3 | 22.5 | 0.00 | 0.00 | 0.00 | 49 | 1016.2 |
| 20260503204008 | 25 | 73 | 11.3 | 19.3 | 0.00 | 0.00 | 0.00 | 48 | 1016.3 |
| 20260503203503 | 25 | 29 | 3.2 | 16.1 | 0.00 | 0.00 | 0.00 | 49 | 1016.2 |
| 20260503203003 | 25 | 127 | 4.8 | 16.1 | 0.00 | 0.00 | 0.00 | 49 | 1016.3 |
| 20260503202503 | 25 | 49 | 8.0 | 17.7 | 0.00 | 0.00 | 0.00 | 51 | 1016.3 |
| 20260503202002 | 24 | 59 | 9.7 | 17.7 | 0.00 | 0.00 | 0.00 | 50 | 1016.4 |
| 20260503201509 | 25 | 85 | 4.8 | 19.3 | 0.00 | 0.00 | 0.00 | 50 | 1016.5 |
| 20260503201002 | 25 | 94 | 11.3 | 19.3 | 0.00 | 0.00 | 0.00 | 50 | 1016.5 |
| 20260503200503 | 25 | 42 | 8.0 | 19.3 | 0.00 | 0.00 | 0.00 | 53 | 1016.5 |
| 20260503200012 | 25 | 109 | 9.7 | 19.3 | 0.00 | 0.00 | 0.00 | 51 | 1016.5 |
| 20260503195503 | 24 | 45 | 4.8 | 17.7 | 0.00 | 0.00 | 0.00 | 51 | 1016.6 |
| 20260503195007 | 25 | 51 | 6.4 | 20.9 | 0.00 | 0.03 | 0.00 | 50 | 1016.7 |
| 20260503194526 | 25 | 61 | 9.7 | 20.9 | 0.00 | 0.05 | 0.00 | 50 | 1016.8 |
| 20260503194004 | 26 | 82 | 11.3 | 20.9 | 0.00 | 0.10 | 0.00 | 49 | 1016.9 |
| 20260503193506 | 25 | 360 | 6.4 | 17.7 | 0.00 | 0.15 | 0.00 | 50 | 1017.0 |
| 20260503193017 | 24 | 86 | 6.4 | 16.1 | 0.00 | 0.18 | 0.00 | 53 | 1017.0 |
| 20260503192506 | 24 | 128 | 4.8 | 17.7 | 0.00 | 0.18 | 0.00 | 51 | 1017.1 |
| 20260503192004 | 25 | 97 | 9.7 | 20.9 | 0.00 | 0.23 | 0.00 | 51 | 1017.3 |
| 20260503191515 | 25 | 46 | 11.3 | 20.9 | 0.00 | 0.25 | 0.00 | 50 | 1017.3 |
| 20260503191003 | 25 | 34 | 4.8 | 17.7 | 0.00 | 0.30 | 0.00 | 51 | 1017.5 |
| 20260503190504 | 25 | 33 | 6.4 | 16.1 | 0.00 | 0.36 | 0.00 | 53 | 1017.6 |
| 20260503190016 | 25 | 55 | 1.6 | 17.7 | 0.00 | 0.38 | 0.00 | 54 | 1017.6 |
| 20260503185506 | 25 | 60 | 8.0 | 17.7 | 0.00 | 0.41 | 0.00 | 50 | 1017.8 |
| 20260503185005 | 25 | 34 | 9.7 | 16.1 | 0.00 | 0.43 | 0.00 | 53 | 1017.9 |
| 20260503184510 | 25 | 350 | 4.8 | 17.7 | 0.00 | 0.46 | 0.00 | 53 | 1017.9 |
| 20260503184006 | 24 | 16 | 8.0 | 17.7 | 0.00 | 0.48 | 0.00 | 54 | 1018.0 |
| 20260503183510 | 23 | 12 | 1.6 | 17.7 | 0.00 | 0.48 | 0.00 | 56 | 1017.9 |
| 20260503183023 | 24 | 109 | 6.4 | 17.7 | 0.00 | 0.51 | 0.00 | 52 | 1018.0 |
| 20260503182503 | 24 | 9 | 3.2 | 16.1 | 0.00 | 0.53 | 0.00 | 56 | 1018.0 |
| 20260503182007 | 24 | 21 | 6.4 | 22.5 | 0.00 | 0.61 | 0.00 | 57 | 1018.1 |
| 20260503181528 | 24 | 40 | 12.9 | 22.5 | 0.00 | 0.81 | 0.00 | 55 | 1018.1 |
| 20260503181004 | 25 | 67 | 6.4 | 24.1 | 0.00 | 1.04 | 0.00 | 53 | 1018.1 |
| 20260503180504 | 24 | 47 | 11.3 | 24.1 | 0.00 | 1.27 | 0.00 | 55 | 1018.2 |
| 20260503180019 | 25 | 52 | 9.7 | 22.5 | 0.00 | 1.32 | 0.00 | 55 | 1018.2 |
| 20260503175510 | 24 | 40 | 14.5 | 24.1 | 0.00 | 1.32 | 0.00 | 55 | 1018.3 |
| 20260503175009 | 24 | 80 | 11.3 | 24.1 | 0.00 | 1.32 | 0.00 | 56 | 1018.4 |
| 20260503174506 | 23 | 37 | 12.9 | 20.9 | 0.00 | 1.32 | 0.00 | 58 | 1018.5 |
| 20260503174006 | 23 | 38 | 11.3 | 19.3 | 0.00 | 1.32 | 0.00 | 57 | 1018.5 |
| 20260503173503 | 23 | 70 | 8.0 | 16.1 | 0.00 | 1.32 | 0.00 | 58 | 1018.5 |
| 20260503173036 | 23 | 29 | 4.8 | 22.5 | 0.00 | 1.32 | 0.00 | 61 | 1018.6 |
| 20260503172506 | 24 | 90 | 12.9 | 22.5 | 0.00 | 1.32 | 0.00 | 57 | 1018.6 |
| 20260503172007 | 23 | 13 | 6.4 | 17.7 | 0.00 | 1.32 | 0.00 | 61 | 1018.6 |
| 20260503171512 | 23 | 27 | 8.0 | 17.7 | 0.00 | 1.32 | 0.00 | 61 | 1018.7 |
| 20260503171004 | 23 | 73 | 9.7 | 20.9 | 0.00 | 1.32 | 0.00 | 59 | 1018.6 |
| 20260503170505 | 23 | 57 | 14.5 | 25.7 | 0.00 | 1.32 | 0.00 | 59 | 1018.8 |
| 20260503151003 | 21 | 15 | 9.7 | 27.4 | 0.00 | 1.32 | 0.00 | 68 | 1019.1 |
| 20260503150510 | 21 | 61 | 16.1 | 27.4 | 0.00 | 1.32 | 0.00 | 69 | 1018.9 |
| 20260503131004 | 17 | 30 | 8.0 | 17.7 | 0.00 | 1.32 | 0.00 | 84 | 1018.4 |
| 20260503130508 | 17 | 22 | 4.8 | 17.7 | 0.00 | 1.32 | 0.00 | 86 | 1018.3 |
| 20260503110505 | 15 | 5 | 9.7 | 14.5 | 0.00 | 1.32 | 0.00 | 92 | 1017.3 |